sensor_id;sensor_type;location;lat;lon;timestamp;temperature;humidity
11284;DHT22;5698;47.332;11.180;2022-10-31T00:00:07;11.10;94.70
11284;DHT22;5698;47.332;11.180;2022-10-31T00:02:34;11.20;94.80
11284;DHT22;5698;47.332;11.180;2022-10-31T00:05:01;11.30;94.40
11284;DHT22;5698;47.332;11.180;2022-10-31T00:07:28;11.30;94.70
11284;DHT22;5698;47.332;11.180;2022-10-31T00:09:55;11.30;94.70
11284;DHT22;5698;47.332;11.180;2022-10-31T00:12:22;11.20;95.00
11284;DHT22;5698;47.332;11.180;2022-10-31T00:14:50;11.10;95.40
11284;DHT22;5698;47.332;11.180;2022-10-31T00:17:17;11.00;95.30
11284;DHT22;5698;47.332;11.180;2022-10-31T00:19:44;11.00;95.20
11284;DHT22;5698;47.332;11.180;2022-10-31T00:22:11;10.90;95.20
11284;DHT22;5698;47.332;11.180;2022-10-31T00:24:38;11.00;95.00
11284;DHT22;5698;47.332;11.180;2022-10-31T00:27:05;11.00;95.20
11284;DHT22;5698;47.332;11.180;2022-10-31T00:29:32;11.00;94.90
11284;DHT22;5698;47.332;11.180;2022-10-31T00:32:00;11.00;94.90
11284;DHT22;5698;47.332;11.180;2022-10-31T00:34:27;11.20;94.50
11284;DHT22;5698;47.332;11.180;2022-10-31T00:36:54;11.20;94.50
11284;DHT22;5698;47.332;11.180;2022-10-31T00:39:21;11.30;94.40
11284;DHT22;5698;47.332;11.180;2022-10-31T00:41:48;11.40;94.00
11284;DHT22;5698;47.332;11.180;2022-10-31T00:44:15;11.40;93.80
11284;DHT22;5698;47.332;11.180;2022-10-31T00:46:42;11.40;93.70
11284;DHT22;5698;47.332;11.180;2022-10-31T00:49:10;11.40;94.10
11284;DHT22;5698;47.332;11.180;2022-10-31T00:51:38;11.20;94.70
11284;DHT22;5698;47.332;11.180;2022-10-31T00:54:05;11.10;94.80
11284;DHT22;5698;47.332;11.180;2022-10-31T00:56:32;11.10;95.30
11284;DHT22;5698;47.332;11.180;2022-10-31T00:58:59;11.00;95.00
11284;DHT22;5698;47.332;11.180;2022-10-31T01:01:26;11.00;95.00
11284;DHT22;5698;47.332;11.180;2022-10-31T01:03:53;11.00;94.70
11284;DHT22;5698;47.332;11.180;2022-10-31T01:06:22;11.00;94.90
11284;DHT22;5698;47.332;11.180;2022-10-31T01:08:49;10.90;95.00
11284;DHT22;5698;47.332;11.180;2022-10-31T01:11:18;10.90;94.90
11284;DHT22;5698;47.332;11.180;2022-10-31T01:13:46;10.90;95.00
11284;DHT22;5698;47.332;11.180;2022-10-31T01:16:14;10.90;95.20
11284;DHT22;5698;47.332;11.180;2022-10-31T01:18:42;10.90;95.00
11284;DHT22;5698;47.332;11.180;2022-10-31T01:21:11;10.90;95.10
11284;DHT22;5698;47.332;11.180;2022-10-31T01:23:39;10.80;95.10
11284;DHT22;5698;47.332;11.180;2022-10-31T01:26:09;10.80;95.10
11284;DHT22;5698;47.332;11.180;2022-10-31T01:28:38;10.80;95.10
11284;DHT22;5698;47.332;11.180;2022-10-31T01:31:07;10.80;95.00
11284;DHT22;5698;47.332;11.180;2022-10-31T01:33:35;10.80;95.00
11284;DHT22;5698;47.332;11.180;2022-10-31T01:36:11;10.80;95.00
11284;DHT22;5698;47.332;11.180;2022-10-31T01:38:39;10.80;94.90
11284;DHT22;5698;47.332;11.180;2022-10-31T01:41:06;10.80;95.10
11284;DHT22;5698;47.332;11.180;2022-10-31T01:43:44;10.70;95.10
11284;DHT22;5698;47.332;11.180;2022-10-31T01:46:12;10.70;95.50
11284;DHT22;5698;47.332;11.180;2022-10-31T01:48:40;10.70;95.30
11284;DHT22;5698;47.332;11.180;2022-10-31T01:51:08;10.70;95.20
11284;DHT22;5698;47.332;11.180;2022-10-31T01:53:40;10.70;95.40
11284;DHT22;5698;47.332;11.180;2022-10-31T01:56:08;10.70;95.40
11284;DHT22;5698;47.332;11.180;2022-10-31T01:58:36;10.60;95.50
11284;DHT22;5698;47.332;11.180;2022-10-31T02:01:03;10.60;95.90
11284;DHT22;5698;47.332;11.180;2022-10-31T02:03:31;10.60;95.70
11284;DHT22;5698;47.332;11.180;2022-10-31T02:05:58;10.60;95.40
11284;DHT22;5698;47.332;11.180;2022-10-31T02:08:27;10.70;95.20
11284;DHT22;5698;47.332;11.180;2022-10-31T02:10:57;10.70;95.00
11284;DHT22;5698;47.332;11.180;2022-10-31T02:13:25;10.70;95.10
11284;DHT22;5698;47.332;11.180;2022-10-31T02:15:54;10.60;95.40
11284;DHT22;5698;47.332;11.180;2022-10-31T02:18:22;10.50;95.70
11284;DHT22;5698;47.332;11.180;2022-10-31T02:20:57;10.50;95.70
11284;DHT22;5698;47.332;11.180;2022-10-31T02:27:07;10.50;95.60
11284;DHT22;5698;47.332;11.180;2022-10-31T02:32:49;10.40;95.70
11284;DHT22;5698;47.332;11.180;2022-10-31T02:35:34;10.50;95.50
11284;DHT22;5698;47.332;11.180;2022-10-31T02:38:10;10.60;95.40
11284;DHT22;5698;47.332;11.180;2022-10-31T02:40:45;10.50;95.30
11284;DHT22;5698;47.332;11.180;2022-10-31T02:43:18;10.50;95.50
11284;DHT22;5698;47.332;11.180;2022-10-31T02:45:51;10.50;95.20
11284;DHT22;5698;47.332;11.180;2022-10-31T02:48:27;10.50;95.40
11284;DHT22;5698;47.332;11.180;2022-10-31T02:50:58;10.40;95.50
11284;DHT22;5698;47.332;11.180;2022-10-31T02:53:26;10.40;95.50
11284;DHT22;5698;47.332;11.180;2022-10-31T02:55:58;10.40;95.70
11284;DHT22;5698;47.332;11.180;2022-10-31T02:58:29;10.30;95.90
11284;DHT22;5698;47.332;11.180;2022-10-31T03:01:28;10.30;95.80
11284;DHT22;5698;47.332;11.180;2022-10-31T03:04:22;10.30;96.00
11284;DHT22;5698;47.332;11.180;2022-10-31T03:06:58;10.30;95.80
11284;DHT22;5698;47.332;11.180;2022-10-31T03:09:34;10.20;95.80
11284;DHT22;5698;47.332;11.180;2022-10-31T03:12:06;10.20;95.80
11284;DHT22;5698;47.332;11.180;2022-10-31T03:14:41;10.20;96.20
11284;DHT22;5698;47.332;11.180;2022-10-31T03:17:14;10.20;96.00
11284;DHT22;5698;47.332;11.180;2022-10-31T03:19:46;10.20;95.70
11284;DHT22;5698;47.332;11.180;2022-10-31T03:22:17;10.30;95.70
11284;DHT22;5698;47.332;11.180;2022-10-31T03:24:45;10.30;95.60
11284;DHT22;5698;47.332;11.180;2022-10-31T03:27:15;10.40;94.70
11284;DHT22;5698;47.332;11.180;2022-10-31T03:29:46;10.60;94.30
11284;DHT22;5698;47.332;11.180;2022-10-31T03:32:17;10.80;94.30
11284;DHT22;5698;47.332;11.180;2022-10-31T03:34:46;10.90;94.50
11284;DHT22;5698;47.332;11.180;2022-10-31T03:37:16;10.80;94.40
11284;DHT22;5698;47.332;11.180;2022-10-31T03:39:45;10.90;94.40
11284;DHT22;5698;47.332;11.180;2022-10-31T03:42:15;10.80;94.50
11284;DHT22;5698;47.332;11.180;2022-10-31T03:44:46;10.70;94.60
11284;DHT22;5698;47.332;11.180;2022-10-31T03:47:13;10.60;95.10
11284;DHT22;5698;47.332;11.180;2022-10-31T03:49:41;10.50;95.20
11284;DHT22;5698;47.332;11.180;2022-10-31T03:52:16;10.50;95.20
11284;DHT22;5698;47.332;11.180;2022-10-31T03:54:46;10.40;95.40
11284;DHT22;5698;47.332;11.180;2022-10-31T03:57:23;10.30;95.40
11284;DHT22;5698;47.332;11.180;2022-10-31T03:59:53;10.30;95.60
11284;DHT22;5698;47.332;11.180;2022-10-31T04:02:27;10.20;95.80
11284;DHT22;5698;47.332;11.180;2022-10-31T04:04:56;10.10;96.00
11284;DHT22;5698;47.332;11.180;2022-10-31T04:07:28;10.20;96.00
11284;DHT22;5698;47.332;11.180;2022-10-31T04:09:57;10.20;95.60
11284;DHT22;5698;47.332;11.180;2022-10-31T04:12:27;10.20;96.00
11284;DHT22;5698;47.332;11.180;2022-10-31T04:14:56;10.20;95.80
11284;DHT22;5698;47.332;11.180;2022-10-31T04:17:25;10.20;95.90
11284;DHT22;5698;47.332;11.180;2022-10-31T04:19:52;10.10;95.90
11284;DHT22;5698;47.332;11.180;2022-10-31T04:22:19;10.00;96.10
11284;DHT22;5698;47.332;11.180;2022-10-31T04:24:48;10.00;96.10
11284;DHT22;5698;47.332;11.180;2022-10-31T04:27:15;10.00;96.20
11284;DHT22;5698;47.332;11.180;2022-10-31T04:29:42;9.90;96.50
11284;DHT22;5698;47.332;11.180;2022-10-31T04:32:09;10.00;96.10
11284;DHT22;5698;47.332;11.180;2022-10-31T04:34:36;10.00;96.00
11284;DHT22;5698;47.332;11.180;2022-10-31T04:37:03;10.00;96.00
11284;DHT22;5698;47.332;11.180;2022-10-31T04:39:31;10.00;96.10
11284;DHT22;5698;47.332;11.180;2022-10-31T04:41:59;10.00;96.20
11284;DHT22;5698;47.332;11.180;2022-10-31T04:44:26;9.90;96.10
11284;DHT22;5698;47.332;11.180;2022-10-31T04:46:53;9.90;96.10
11284;DHT22;5698;47.332;11.180;2022-10-31T04:49:20;9.90;96.30
11284;DHT22;5698;47.332;11.180;2022-10-31T04:51:47;9.90;96.30
11284;DHT22;5698;47.332;11.180;2022-10-31T04:54:14;9.90;96.40
11284;DHT22;5698;47.332;11.180;2022-10-31T04:56:41;9.90;96.50
11284;DHT22;5698;47.332;11.180;2022-10-31T04:59:09;9.90;96.50
11284;DHT22;5698;47.332;11.180;2022-10-31T05:01:36;9.90;96.50
11284;DHT22;5698;47.332;11.180;2022-10-31T05:04:03;9.80;96.40
11284;DHT22;5698;47.332;11.180;2022-10-31T05:06:30;9.80;96.40
11284;DHT22;5698;47.332;11.180;2022-10-31T05:08:57;9.80;96.60
11284;DHT22;5698;47.332;11.180;2022-10-31T05:11:24;9.80;96.40
11284;DHT22;5698;47.332;11.180;2022-10-31T05:13:51;9.70;96.50
11284;DHT22;5698;47.332;11.180;2022-10-31T05:16:19;9.70;96.80
11284;DHT22;5698;47.332;11.180;2022-10-31T05:18:46;9.70;96.70
11284;DHT22;5698;47.332;11.180;2022-10-31T05:21:13;9.60;96.60
11284;DHT22;5698;47.332;11.180;2022-10-31T05:23:40;9.70;96.60
11284;DHT22;5698;47.332;11.180;2022-10-31T05:26:07;9.70;96.60
11284;DHT22;5698;47.332;11.180;2022-10-31T05:28:34;9.60;96.90
11284;DHT22;5698;47.332;11.180;2022-10-31T05:31:01;9.60;96.90
11284;DHT22;5698;47.332;11.180;2022-10-31T05:33:29;9.60;96.90
11284;DHT22;5698;47.332;11.180;2022-10-31T05:35:56;9.60;97.10
11284;DHT22;5698;47.332;11.180;2022-10-31T05:38:23;9.50;96.90
11284;DHT22;5698;47.332;11.180;2022-10-31T05:40:54;9.60;96.60
11284;DHT22;5698;47.332;11.180;2022-10-31T05:43:23;9.50;96.80
11284;DHT22;5698;47.332;11.180;2022-10-31T05:45:52;9.50;96.90
11284;DHT22;5698;47.332;11.180;2022-10-31T05:48:19;9.50;97.00
11284;DHT22;5698;47.332;11.180;2022-10-31T05:50:49;9.50;97.00
11284;DHT22;5698;47.332;11.180;2022-10-31T05:53:16;9.50;97.10
11284;DHT22;5698;47.332;11.180;2022-10-31T05:55:43;9.40;97.20
11284;DHT22;5698;47.332;11.180;2022-10-31T05:58:10;9.40;96.90
11284;DHT22;5698;47.332;11.180;2022-10-31T06:00:37;9.50;96.90
11284;DHT22;5698;47.332;11.180;2022-10-31T06:03:06;9.40;96.80
11284;DHT22;5698;47.332;11.180;2022-10-31T06:05:33;9.40;97.00
11284;DHT22;5698;47.332;11.180;2022-10-31T06:08:02;9.40;96.90
11284;DHT22;5698;47.332;11.180;2022-10-31T06:10:29;9.40;97.10
11284;DHT22;5698;47.332;11.180;2022-10-31T06:12:56;9.40;97.40
11284;DHT22;5698;47.332;11.180;2022-10-31T06:15:23;9.40;97.40
11284;DHT22;5698;47.332;11.180;2022-10-31T06:17:58;9.40;97.40
11284;DHT22;5698;47.332;11.180;2022-10-31T06:20:25;9.30;97.50
11284;DHT22;5698;47.332;11.180;2022-10-31T06:22:52;9.30;97.60
11284;DHT22;5698;47.332;11.180;2022-10-31T06:25:20;9.30;97.50
11284;DHT22;5698;47.332;11.180;2022-10-31T06:27:47;9.30;97.40
11284;DHT22;5698;47.332;11.180;2022-10-31T06:30:15;9.40;97.60
11284;DHT22;5698;47.332;11.180;2022-10-31T06:32:42;9.40;97.60
11284;DHT22;5698;47.332;11.180;2022-10-31T06:35:09;9.40;97.40
11284;DHT22;5698;47.332;11.180;2022-10-31T06:37:36;9.40;97.40
11284;DHT22;5698;47.332;11.180;2022-10-31T06:40:04;9.40;97.40
11284;DHT22;5698;47.332;11.180;2022-10-31T06:42:32;9.40;97.50
11284;DHT22;5698;47.332;11.180;2022-10-31T06:44:59;9.40;97.50
11284;DHT22;5698;47.332;11.180;2022-10-31T06:47:26;9.50;97.80
11284;DHT22;5698;47.332;11.180;2022-10-31T06:49:53;9.50;97.50
11284;DHT22;5698;47.332;11.180;2022-10-31T06:52:20;9.70;97.40
11284;DHT22;5698;47.332;11.180;2022-10-31T06:54:48;9.70;97.20
11284;DHT22;5698;47.332;11.180;2022-10-31T06:57:15;9.80;97.10
11284;DHT22;5698;47.332;11.180;2022-10-31T06:59:44;9.80;97.20
11284;DHT22;5698;47.332;11.180;2022-10-31T07:02:11;9.80;97.50
11284;DHT22;5698;47.332;11.180;2022-10-31T07:04:38;9.80;98.40
11284;DHT22;5698;47.332;11.180;2022-10-31T07:07:05;10.00;98.30
11284;DHT22;5698;47.332;11.180;2022-10-31T07:09:32;10.20;98.10
11284;DHT22;5698;47.332;11.180;2022-10-31T07:11:59;10.50;98.30
11284;DHT22;5698;47.332;11.180;2022-10-31T07:14:26;10.70;97.70
11284;DHT22;5698;47.332;11.180;2022-10-31T07:16:54;11.00;97.30
11284;DHT22;5698;47.332;11.180;2022-10-31T07:19:21;11.30;97.00
11284;DHT22;5698;47.332;11.180;2022-10-31T07:21:48;11.70;96.50
11284;DHT22;5698;47.332;11.180;2022-10-31T07:24:15;12.00;96.40
11284;DHT22;5698;47.332;11.180;2022-10-31T07:26:42;12.30;96.90
11284;DHT22;5698;47.332;11.180;2022-10-31T07:29:11;12.90;96.60
11284;DHT22;5698;47.332;11.180;2022-10-31T07:31:38;13.60;95.40
11284;DHT22;5698;47.332;11.180;2022-10-31T07:34:06;14.30;93.80
11284;DHT22;5698;47.332;11.180;2022-10-31T07:36:33;15.00;91.80
11284;DHT22;5698;47.332;11.180;2022-10-31T07:39:00;15.60;88.50
11284;DHT22;5698;47.332;11.180;2022-10-31T07:41:27;16.10;90.40
11284;DHT22;5698;47.332;11.180;2022-10-31T07:43:54;16.60;82.30
11284;DHT22;5698;47.332;11.180;2022-10-31T07:46:22;16.80;81.90
11284;DHT22;5698;47.332;11.180;2022-10-31T07:48:49;17.10;85.10
11284;DHT22;5698;47.332;11.180;2022-10-31T07:51:17;17.30;79.60
11284;DHT22;5698;47.332;11.180;2022-10-31T07:53:44;17.30;80.90
11284;DHT22;5698;47.332;11.180;2022-10-31T07:56:11;17.20;80.40
11284;DHT22;5698;47.332;11.180;2022-10-31T07:58:38;17.10;80.30
11284;DHT22;5698;47.332;11.180;2022-10-31T08:01:05;17.00;82.10
11284;DHT22;5698;47.332;11.180;2022-10-31T08:03:32;16.90;83.30
11284;DHT22;5698;47.332;11.180;2022-10-31T08:05:59;16.80;81.80
11284;DHT22;5698;47.332;11.180;2022-10-31T08:08:28;16.20;78.80
11284;DHT22;5698;47.332;11.180;2022-10-31T08:10:55;16.00;82.40
11284;DHT22;5698;47.332;11.180;2022-10-31T08:13:22;15.60;81.00
11284;DHT22;5698;47.332;11.180;2022-10-31T08:15:49;15.40;81.70
11284;DHT22;5698;47.332;11.180;2022-10-31T08:18:17;15.50;84.80
11284;DHT22;5698;47.332;11.180;2022-10-31T08:20:44;15.70;86.40
11284;DHT22;5698;47.332;11.180;2022-10-31T08:23:12;16.00;85.80
11284;DHT22;5698;47.332;11.180;2022-10-31T08:25:41;16.30;86.30
11284;DHT22;5698;47.332;11.180;2022-10-31T08:28:10;16.60;84.80
11284;DHT22;5698;47.332;11.180;2022-10-31T08:30:37;16.90;83.90
11284;DHT22;5698;47.332;11.180;2022-10-31T08:33:06;17.20;81.00
11284;DHT22;5698;47.332;11.180;2022-10-31T08:35:34;17.40;78.20
11284;DHT22;5698;47.332;11.180;2022-10-31T08:38:02;17.70;78.20
11284;DHT22;5698;47.332;11.180;2022-10-31T08:40:30;17.70;75.70
11284;DHT22;5698;47.332;11.180;2022-10-31T08:43:01;17.30;74.90
11284;DHT22;5698;47.332;11.180;2022-10-31T08:45:29;17.30;77.40
11284;DHT22;5698;47.332;11.180;2022-10-31T08:47:59;17.30;77.10
11284;DHT22;5698;47.332;11.180;2022-10-31T08:50:28;17.40;75.90
11284;DHT22;5698;47.332;11.180;2022-10-31T08:53:00;17.50;75.80
11284;DHT22;5698;47.332;11.180;2022-10-31T08:55:27;17.60;78.10
11284;DHT22;5698;47.332;11.180;2022-10-31T08:57:55;17.80;79.40
11284;DHT22;5698;47.332;11.180;2022-10-31T09:00:24;17.80;77.50
11284;DHT22;5698;47.332;11.180;2022-10-31T09:02:55;17.80;77.70
11284;DHT22;5698;47.332;11.180;2022-10-31T09:05:23;17.80;78.30
11284;DHT22;5698;47.332;11.180;2022-10-31T09:07:50;17.60;77.50
11284;DHT22;5698;47.332;11.180;2022-10-31T09:10:17;17.60;76.90
11284;DHT22;5698;47.332;11.180;2022-10-31T09:12:44;17.30;79.00
11284;DHT22;5698;47.332;11.180;2022-10-31T09:15:11;17.20;76.40
11284;DHT22;5698;47.332;11.180;2022-10-31T09:17:46;17.20;78.60
11284;DHT22;5698;47.332;11.180;2022-10-31T09:20:13;17.20;76.60
11284;DHT22;5698;47.332;11.180;2022-10-31T09:22:40;17.10;77.20
11284;DHT22;5698;47.332;11.180;2022-10-31T09:25:07;17.00;75.30
11284;DHT22;5698;47.332;11.180;2022-10-31T09:27:34;17.20;77.30
11284;DHT22;5698;47.332;11.180;2022-10-31T09:30:01;17.30;75.90
11284;DHT22;5698;47.332;11.180;2022-10-31T09:32:28;17.50;73.70
11284;DHT22;5698;47.332;11.180;2022-10-31T09:34:57;17.70;74.60
11284;DHT22;5698;47.332;11.180;2022-10-31T09:37:24;17.80;73.50
11284;DHT22;5698;47.332;11.180;2022-10-31T09:39:51;18.10;75.90
11284;DHT22;5698;47.332;11.180;2022-10-31T09:42:46;18.30;75.80
11284;DHT22;5698;47.332;11.180;2022-10-31T09:45:21;18.60;74.20
11284;DHT22;5698;47.332;11.180;2022-10-31T09:48:08;18.60;71.30
11284;DHT22;5698;47.332;11.180;2022-10-31T09:50:42;18.90;72.60
11284;DHT22;5698;47.332;11.180;2022-10-31T09:53:17;19.00;71.60
11284;DHT22;5698;47.332;11.180;2022-10-31T09:55:47;18.90;69.00
11284;DHT22;5698;47.332;11.180;2022-10-31T09:58:18;19.00;71.20
11284;DHT22;5698;47.332;11.180;2022-10-31T10:00:46;19.00;72.40
11284;DHT22;5698;47.332;11.180;2022-10-31T10:03:22;19.20;71.80
11284;DHT22;5698;47.332;11.180;2022-10-31T10:05:57;19.50;67.40
11284;DHT22;5698;47.332;11.180;2022-10-31T10:08:28;19.50;65.50
11284;DHT22;5698;47.332;11.180;2022-10-31T10:11:04;19.40;65.70
11284;DHT22;5698;47.332;11.180;2022-10-31T10:13:43;19.50;66.60
11284;DHT22;5698;47.332;11.180;2022-10-31T10:16:41;20.00;66.70
11284;DHT22;5698;47.332;11.180;2022-10-31T10:19:21;20.70;66.20
11284;DHT22;5698;47.332;11.180;2022-10-31T10:22:00;21.60;66.10
11284;DHT22;5698;47.332;11.180;2022-10-31T10:24:39;22.20;65.80
11284;DHT22;5698;47.332;11.180;2022-10-31T10:27:16;22.60;64.10
11284;DHT22;5698;47.332;11.180;2022-10-31T10:29:50;23.00;63.00
11284;DHT22;5698;47.332;11.180;2022-10-31T10:32:22;23.50;63.80
11284;DHT22;5698;47.332;11.180;2022-10-31T10:34:52;23.70;60.80
11284;DHT22;5698;47.332;11.180;2022-10-31T10:37:28;23.90;58.80
11284;DHT22;5698;47.332;11.180;2022-10-31T10:40:03;24.20;59.10
11284;DHT22;5698;47.332;11.180;2022-10-31T10:42:33;24.50;57.30
11284;DHT22;5698;47.332;11.180;2022-10-31T10:45:19;24.60;56.10
11284;DHT22;5698;47.332;11.180;2022-10-31T10:48:08;24.70;57.50
11284;DHT22;5698;47.332;11.180;2022-10-31T10:50:42;25.00;57.90
11284;DHT22;5698;47.332;11.180;2022-10-31T10:53:24;25.10;58.50
11284;DHT22;5698;47.332;11.180;2022-10-31T10:56:01;25.30;58.20
11284;DHT22;5698;47.332;11.180;2022-10-31T10:58:29;25.50;55.80
11284;DHT22;5698;47.332;11.180;2022-10-31T11:00:56;25.70;52.20
11284;DHT22;5698;47.332;11.180;2022-10-31T11:03:23;25.70;52.40
11284;DHT22;5698;47.332;11.180;2022-10-31T11:05:51;25.60;50.90
11284;DHT22;5698;47.332;11.180;2022-10-31T11:08:27;25.60;51.20
11284;DHT22;5698;47.332;11.180;2022-10-31T11:11:03;24.90;49.30
11284;DHT22;5698;47.332;11.180;2022-10-31T11:13:33;24.90;52.90
11284;DHT22;5698;47.332;11.180;2022-10-31T11:16:04;25.20;53.90
11284;DHT22;5698;47.332;11.180;2022-10-31T11:18:33;25.50;54.10
11284;DHT22;5698;47.332;11.180;2022-10-31T11:21:02;25.80;53.60
11284;DHT22;5698;47.332;11.180;2022-10-31T11:23:32;26.00;53.00
11284;DHT22;5698;47.332;11.180;2022-10-31T11:26:00;26.20;50.50
11284;DHT22;5698;47.332;11.180;2022-10-31T11:28:29;26.20;49.00
11284;DHT22;5698;47.332;11.180;2022-10-31T11:30:59;25.90;50.30
11284;DHT22;5698;47.332;11.180;2022-10-31T11:33:30;25.50;48.10
11284;DHT22;5698;47.332;11.180;2022-10-31T11:35:58;25.10;47.50
11284;DHT22;5698;47.332;11.180;2022-10-31T11:38:33;24.80;50.30
11284;DHT22;5698;47.332;11.180;2022-10-31T11:41:08;24.70;51.20
11284;DHT22;5698;47.332;11.180;2022-10-31T11:43:36;24.10;49.70
11284;DHT22;5698;47.332;11.180;2022-10-31T11:46:09;23.90;52.00
11284;DHT22;5698;47.332;11.180;2022-10-31T11:48:37;23.80;51.70
11284;DHT22;5698;47.332;11.180;2022-10-31T11:51:04;23.90;51.10
11284;DHT22;5698;47.332;11.180;2022-10-31T11:53:33;24.10;51.20
11284;DHT22;5698;47.332;11.180;2022-10-31T11:56:04;24.30;49.60
11284;DHT22;5698;47.332;11.180;2022-10-31T11:58:32;24.40;52.50
11284;DHT22;5698;47.332;11.180;2022-10-31T12:00:59;24.70;52.90
11284;DHT22;5698;47.332;11.180;2022-10-31T12:03:49;24.80;48.90
11284;DHT22;5698;47.332;11.180;2022-10-31T12:06:21;24.60;48.10
11284;DHT22;5698;47.332;11.180;2022-10-31T12:08:50;24.40;49.50
11284;DHT22;5698;47.332;11.180;2022-10-31T12:11:33;24.60;50.60
11284;DHT22;5698;47.332;11.180;2022-10-31T12:14:11;25.20;50.10
11284;DHT22;5698;47.332;11.180;2022-10-31T12:16:48;24.90;48.50
11284;DHT22;5698;47.332;11.180;2022-10-31T12:19:23;25.20;49.10
11284;DHT22;5698;47.332;11.180;2022-10-31T12:22:14;25.20;46.30
11284;DHT22;5698;47.332;11.180;2022-10-31T12:24:59;25.70;47.90
11284;DHT22;5698;47.332;11.180;2022-10-31T12:27:39;26.10;47.80
11284;DHT22;5698;47.332;11.180;2022-10-31T12:30:15;25.90;45.10
11284;DHT22;5698;47.332;11.180;2022-10-31T12:32:57;25.50;45.70
11284;DHT22;5698;47.332;11.180;2022-10-31T12:35:40;25.60;48.30
11284;DHT22;5698;47.332;11.180;2022-10-31T12:38:32;25.90;48.00
11284;DHT22;5698;47.332;11.180;2022-10-31T12:41:17;25.90;49.30
11284;DHT22;5698;47.332;11.180;2022-10-31T12:43:48;26.10;47.10
11284;DHT22;5698;47.332;11.180;2022-10-31T12:46:26;26.30;50.50
11284;DHT22;5698;47.332;11.180;2022-10-31T12:49:26;26.00;50.20
11284;DHT22;5698;47.332;11.180;2022-10-31T12:52:05;25.40;47.50
11284;DHT22;5698;47.332;11.180;2022-10-31T12:54:53;25.20;46.60
11284;DHT22;5698;47.332;11.180;2022-10-31T12:57:29;24.80;49.50
11284;DHT22;5698;47.332;11.180;2022-10-31T13:00:02;24.70;50.10
11284;DHT22;5698;47.332;11.180;2022-10-31T13:02:35;24.50;52.50
11284;DHT22;5698;47.332;11.180;2022-10-31T13:05:11;24.40;52.90
11284;DHT22;5698;47.332;11.180;2022-10-31T13:07:43;24.10;52.30
11284;DHT22;5698;47.332;11.180;2022-10-31T13:10:17;23.80;52.80
11284;DHT22;5698;47.332;11.180;2022-10-31T13:12:50;23.50;54.30
11284;DHT22;5698;47.332;11.180;2022-10-31T13:15:21;23.10;54.70
11284;DHT22;5698;47.332;11.180;2022-10-31T13:17:52;22.70;51.20
11284;DHT22;5698;47.332;11.180;2022-10-31T13:20:24;22.30;55.80
11284;DHT22;5698;47.332;11.180;2022-10-31T13:22:56;21.80;57.90
11284;DHT22;5698;47.332;11.180;2022-10-31T13:25:30;21.50;59.10
11284;DHT22;5698;47.332;11.180;2022-10-31T13:28:03;21.10;58.20
11284;DHT22;5698;47.332;11.180;2022-10-31T13:30:33;20.80;60.40
11284;DHT22;5698;47.332;11.180;2022-10-31T13:33:07;20.50;59.10
11284;DHT22;5698;47.332;11.180;2022-10-31T13:35:41;20.30;57.50
11284;DHT22;5698;47.332;11.180;2022-10-31T13:38:18;20.30;59.60
11284;DHT22;5698;47.332;11.180;2022-10-31T13:40:53;20.10;61.80
11284;DHT22;5698;47.332;11.180;2022-10-31T13:43:33;19.90;63.00
11284;DHT22;5698;47.332;11.180;2022-10-31T13:46:22;19.70;59.70
11284;DHT22;5698;47.332;11.180;2022-10-31T13:48:49;19.60;62.50
11284;DHT22;5698;47.332;11.180;2022-10-31T13:51:25;19.40;61.30
11284;DHT22;5698;47.332;11.180;2022-10-31T13:53:58;19.20;59.70
11284;DHT22;5698;47.332;11.180;2022-10-31T13:56:27;19.00;63.30
11284;DHT22;5698;47.332;11.180;2022-10-31T13:59:19;19.00;62.10
11284;DHT22;5698;47.332;11.180;2022-10-31T14:01:50;18.80;64.80
11284;DHT22;5698;47.332;11.180;2022-10-31T14:04:19;18.60;66.10
11284;DHT22;5698;47.332;11.180;2022-10-31T14:06:56;18.30;64.40
11284;DHT22;5698;47.332;11.180;2022-10-31T14:09:30;18.00;66.70
11284;DHT22;5698;47.332;11.180;2022-10-31T14:12:01;17.90;65.90
11284;DHT22;5698;47.332;11.180;2022-10-31T14:14:35;17.80;64.10
11284;DHT22;5698;47.332;11.180;2022-10-31T14:17:12;17.70;67.50
11284;DHT22;5698;47.332;11.180;2022-10-31T14:19:41;17.50;64.50
11284;DHT22;5698;47.332;11.180;2022-10-31T14:22:19;17.40;65.40
11284;DHT22;5698;47.332;11.180;2022-10-31T14:24:47;17.30;68.00
11284;DHT22;5698;47.332;11.180;2022-10-31T14:27:43;17.30;69.10
11284;DHT22;5698;47.332;11.180;2022-10-31T14:30:17;17.20;69.30
11284;DHT22;5698;47.332;11.180;2022-10-31T14:32:50;17.00;68.90
11284;DHT22;5698;47.332;11.180;2022-10-31T14:35:20;16.90;72.20
11284;DHT22;5698;47.332;11.180;2022-10-31T14:38:09;16.80;69.40
11284;DHT22;5698;47.332;11.180;2022-10-31T14:40:52;16.80;68.60
11284;DHT22;5698;47.332;11.180;2022-10-31T14:43:43;16.70;70.10
11284;DHT22;5698;47.332;11.180;2022-10-31T14:46:30;16.80;69.70
11284;DHT22;5698;47.332;11.180;2022-10-31T14:49:15;16.80;69.60
11284;DHT22;5698;47.332;11.180;2022-10-31T14:51:47;16.70;72.00
11284;DHT22;5698;47.332;11.180;2022-10-31T14:54:17;16.50;73.80
11284;DHT22;5698;47.332;11.180;2022-10-31T14:56:49;16.50;72.60
11284;DHT22;5698;47.332;11.180;2022-10-31T14:59:20;16.40;72.10
11284;DHT22;5698;47.332;11.180;2022-10-31T15:01:56;16.30;74.10
11284;DHT22;5698;47.332;11.180;2022-10-31T15:04:25;16.20;73.70
11284;DHT22;5698;47.332;11.180;2022-10-31T15:06:54;16.10;74.20
11284;DHT22;5698;47.332;11.180;2022-10-31T15:09:26;16.10;74.20
11284;DHT22;5698;47.332;11.180;2022-10-31T15:11:53;16.00;72.20
11284;DHT22;5698;47.332;11.180;2022-10-31T15:14:23;16.00;73.50
11284;DHT22;5698;47.332;11.180;2022-10-31T15:16:52;15.90;74.60
11284;DHT22;5698;47.332;11.180;2022-10-31T15:19:23;15.70;76.60
11284;DHT22;5698;47.332;11.180;2022-10-31T15:21:52;15.70;77.00
11284;DHT22;5698;47.332;11.180;2022-10-31T15:24:20;15.70;77.90
11284;DHT22;5698;47.332;11.180;2022-10-31T15:26:51;15.60;76.10
11284;DHT22;5698;47.332;11.180;2022-10-31T15:29:20;15.60;79.10
11284;DHT22;5698;47.332;11.180;2022-10-31T15:31:54;15.50;79.60
11284;DHT22;5698;47.332;11.180;2022-10-31T15:34:24;15.40;78.00
11284;DHT22;5698;47.332;11.180;2022-10-31T15:36:52;15.50;76.50
11284;DHT22;5698;47.332;11.180;2022-10-31T15:39:20;15.30;78.30
11284;DHT22;5698;47.332;11.180;2022-10-31T15:41:51;15.30;78.60
11284;DHT22;5698;47.332;11.180;2022-10-31T15:44:22;15.30;77.40
11284;DHT22;5698;47.332;11.180;2022-10-31T15:46:56;15.30;76.90
11284;DHT22;5698;47.332;11.180;2022-10-31T15:49:32;15.20;77.30
11284;DHT22;5698;47.332;11.180;2022-10-31T15:52:07;15.10;76.90
11284;DHT22;5698;47.332;11.180;2022-10-31T15:54:46;14.90;74.70
11284;DHT22;5698;47.332;11.180;2022-10-31T15:57:14;15.00;76.30
11284;DHT22;5698;47.332;11.180;2022-10-31T15:59:45;15.00;76.60
11284;DHT22;5698;47.332;11.180;2022-10-31T16:02:18;14.90;77.20